createdAt,value
2022-11-20T00:04:52.768Z,24.63
2022-11-20T00:09:54.382Z,23.85
2022-11-20T00:14:56.020Z,23.88
2022-11-20T00:19:57.705Z,28.63
2022-11-20T00:24:59.347Z,31.38
2022-11-20T00:30:01.054Z,33.65
2022-11-20T00:35:02.686Z,25.63
2022-11-20T00:40:04.778Z,22.42
2022-11-20T00:45:06.771Z,21.27
2022-11-20T00:50:08.848Z,20.40
2022-11-20T00:55:10.455Z,18.08
2022-11-20T01:00:12.282Z,20.30
2022-11-20T01:05:14.046Z,21.30
2022-11-20T01:10:15.747Z,25.35
2022-11-20T01:15:17.440Z,21.27
2022-11-20T01:20:19.052Z,22.25
2022-11-20T01:25:20.675Z,26.45
2022-11-20T01:30:22.341Z,20.65
2022-11-20T01:35:24.004Z,19.02
2022-11-20T01:40:25.670Z,22.23
2022-11-20T01:46:00.865Z,22.30
2022-11-20T01:51:05.042Z,20.48
2022-11-20T01:56:11.163Z,23.55
2022-11-20T02:01:14.110Z,20.23
2022-11-20T02:06:28.929Z,21.30
2022-11-20T02:11:31.732Z,18.00
2022-11-20T02:16:39.550Z,18.05
2022-11-20T02:21:54.517Z,20.33
2022-11-20T02:27:01.476Z,19.08
2022-11-20T02:32:04.132Z,20.33
2022-11-20T02:37:05.827Z,21.45
2022-11-20T02:42:07.479Z,17.92
2022-11-20T02:47:09.451Z,17.27
2022-11-20T02:52:11.135Z,16.27
2022-11-20T02:57:12.788Z,16.92
2022-11-20T03:02:14.462Z,15.05
2022-11-20T03:07:16.820Z,13.45
2022-11-20T03:12:18.490Z,16.80
2022-11-20T03:17:20.373Z,16.50
2022-11-20T03:22:22.007Z,15.13
2022-11-20T03:27:23.619Z,15.73
2022-11-20T03:32:25.226Z,15.43
2022-11-20T03:37:26.839Z,14.68
2022-11-20T03:42:46.472Z,14.68
2022-11-20T03:47:48.154Z,15.77
2022-11-20T03:52:49.779Z,15.30
2022-11-20T03:57:51.409Z,16.13
2022-11-20T04:02:52.991Z,14.02
2022-11-20T04:07:54.828Z,14.77
2022-11-20T04:12:56.451Z,13.93
2022-11-20T04:17:58.051Z,14.60
2022-11-20T04:22:59.690Z,14.90
2022-11-20T04:28:01.377Z,13.80
2022-11-20T04:33:03.006Z,11.95
2022-11-20T04:38:05.247Z,12.13
2022-11-20T04:43:06.903Z,11.85
2022-11-20T04:48:08.565Z,13.43
2022-11-20T04:53:10.216Z,15.93
2022-11-20T04:58:12.218Z,12.75
2022-11-20T05:03:13.914Z,11.65
2022-11-20T05:08:15.582Z,12.45
2022-11-20T05:13:17.187Z,11.52
2022-11-20T05:18:18.920Z,11.38
2022-11-20T05:23:20.544Z,11.27
2022-11-20T05:28:23.088Z,15.18
2022-11-20T05:33:24.650Z,13.48
2022-11-20T05:38:26.313Z,11.50
2022-11-20T05:43:28.012Z,11.13
2022-11-20T05:48:29.823Z,11.20
2022-11-20T05:53:32.801Z,11.88
2022-11-20T05:58:35.101Z,10.95
2022-11-20T06:03:37.204Z,11.75
2022-11-20T06:08:38.892Z,10.80
2022-11-20T06:13:42.615Z,9.82
2022-11-20T06:18:44.756Z,9.88
2022-11-20T06:23:47.644Z,10.90
2022-11-20T06:28:50.400Z,8.63
2022-11-20T06:33:52.302Z,9.30
2022-11-20T06:38:53.918Z,10.35
2022-11-20T06:43:56.840Z,9.75
2022-11-20T06:48:59.308Z,10.10
2022-11-20T06:54:02.006Z,9.00
2022-11-20T06:59:08.230Z,10.30
2022-11-20T07:04:09.864Z,10.17
2022-11-20T07:09:12.983Z,9.00
2022-11-20T07:14:14.788Z,12.88
2022-11-20T07:19:16.664Z,11.50
2022-11-20T07:24:18.429Z,9.48
2022-11-20T07:29:20.772Z,11.13
2022-11-20T07:34:22.617Z,9.95
2022-11-20T07:39:24.365Z,12.68
2022-11-20T07:44:26.026Z,10.55
2022-11-20T07:49:27.959Z,10.80
2022-11-20T07:54:29.720Z,11.27
2022-11-20T07:59:31.369Z,12.63
2022-11-20T08:04:34.302Z,12.05
2022-11-20T08:09:35.956Z,11.55
2022-11-20T08:14:37.646Z,12.85
2022-11-20T08:19:39.288Z,13.80
2022-11-20T08:24:40.966Z,13.18
2022-11-20T08:29:42.724Z,14.80
2022-11-20T08:34:44.390Z,13.43
2022-11-20T08:39:46.075Z,12.73
2022-11-20T08:44:48.055Z,13.60
2022-11-20T08:49:49.719Z,16.38
2022-11-20T08:54:51.427Z,17.58
2022-11-20T09:00:09.298Z,14.85
2022-11-20T09:05:11.259Z,17.23
2022-11-20T09:10:28.411Z,15.95
2022-11-20T09:20:32.200Z,15.18
2022-11-20T09:25:34.001Z,15.75
2022-11-20T09:30:35.793Z,14.68
2022-11-20T09:35:37.457Z,16.00
2022-11-20T09:40:52.773Z,17.15
2022-11-20T09:46:30.071Z,17.42
2022-11-20T09:51:53.691Z,27.80
2022-11-20T09:57:00.690Z,27.05
2022-11-20T10:02:07.623Z,33.95
2022-11-20T10:07:36.024Z,20.38
2022-11-20T10:13:28.841Z,21.75
2022-11-20T10:18:49.121Z,19.73
2022-11-20T10:24:15.515Z,21.20
2022-11-20T10:29:19.487Z,19.83
2022-11-20T10:34:45.786Z,17.75
2022-11-20T10:40:30.027Z,22.00
2022-11-20T10:45:45.360Z,16.35
2022-11-20T10:51:28.732Z,21.80
2022-11-20T10:56:53.357Z,22.25
2022-11-20T11:01:55.070Z,16.85
2022-11-20T11:07:05.795Z,13.60
2022-11-20T11:12:09.943Z,9.65
2022-11-20T11:17:33.522Z,9.50
2022-11-20T11:22:46.425Z,10.23
2022-11-20T11:27:49.469Z,9.52
2022-11-20T11:32:51.657Z,10.75
2022-11-20T11:38:24.900Z,10.55
2022-11-20T11:43:49.130Z,11.95
2022-11-20T11:49:17.231Z,13.05
2022-11-20T11:54:25.041Z,10.90
2022-11-20T12:00:10.973Z,10.77
2022-11-20T12:05:37.304Z,10.48
2022-11-20T12:10:46.259Z,10.15
2022-11-20T12:15:49.158Z,13.15
2022-11-20T12:21:06.509Z,10.50
2022-11-20T12:26:57.197Z,10.80
2022-11-20T12:32:16.752Z,9.95
2022-11-20T12:37:36.760Z,10.88
2022-11-20T12:43:02.871Z,10.00
2022-11-20T12:48:19.905Z,11.10
2022-11-20T12:53:58.950Z,10.38
2022-11-20T12:59:26.667Z,11.25
2022-11-20T13:05:10.388Z,12.48
2022-11-20T13:10:31.680Z,10.63
2022-11-20T13:15:56.963Z,10.82
2022-11-20T13:20:59.058Z,10.93
2022-11-20T13:26:06.471Z,9.73
2022-11-20T13:36:31.259Z,10.40
2022-11-20T13:41:39.068Z,10.50
2022-11-20T13:46:47.413Z,9.50
2022-11-20T13:51:52.269Z,10.77
2022-11-20T13:57:08.401Z,10.27
2022-11-20T14:02:17.136Z,9.48
2022-11-20T14:07:24.818Z,10.73
2022-11-20T14:12:32.049Z,17.77
2022-11-20T14:17:36.024Z,17.90
2022-11-20T14:22:37.639Z,13.25
2022-11-20T14:27:42.329Z,11.07
2022-11-20T14:32:46.086Z,14.88
2022-11-20T14:37:48.451Z,12.27
2022-11-20T14:42:50.489Z,12.00
2022-11-20T14:47:57.905Z,11.00
2022-11-20T14:53:01.280Z,12.45
2022-11-20T14:58:05.967Z,12.25
2022-11-20T15:03:17.191Z,11.57
2022-11-20T15:08:19.274Z,11.82
2022-11-20T15:13:35.505Z,12.90
2022-11-20T15:18:45.612Z,13.50
2022-11-20T15:23:47.941Z,12.20
2022-11-20T15:28:51.727Z,13.68
2022-11-20T15:33:53.429Z,15.02
2022-11-20T15:38:55.134Z,13.70
2022-11-20T15:43:56.835Z,13.82
2022-11-20T15:49:00.772Z,14.77
2022-11-20T15:54:14.018Z,15.18
2022-11-20T15:59:16.542Z,15.60
2022-11-20T16:04:19.329Z,16.58
2022-11-20T16:09:21.331Z,19.27
2022-11-20T16:14:41.530Z,18.30
2022-11-20T16:19:43.150Z,17.80
2022-11-20T16:24:44.781Z,17.00
2022-11-20T16:29:46.811Z,17.42
2022-11-20T16:34:48.766Z,18.13
2022-11-20T16:39:50.998Z,17.23
2022-11-20T16:44:52.686Z,21.55
2022-11-20T16:49:54.299Z,27.52
2022-11-20T16:54:56.235Z,19.83
2022-11-20T17:00:02.055Z,21.95
2022-11-20T17:05:04.697Z,17.80
2022-11-20T17:10:06.797Z,20.15
2022-11-20T17:15:08.896Z,35.05
2022-11-20T17:20:12.284Z,28.90
2022-11-20T17:25:14.697Z,27.52
2022-11-20T17:30:16.418Z,26.17
2022-11-20T17:35:18.037Z,20.45
2022-11-20T17:40:23.226Z,25.48
2022-11-20T17:45:28.706Z,17.88
2022-11-20T17:50:30.400Z,16.77
2022-11-20T17:55:55.613Z,16.23
2022-11-20T18:01:05.243Z,16.13
2022-11-20T18:06:22.305Z,15.38
2022-11-20T18:11:30.176Z,13.02
2022-11-20T18:16:36.315Z,14.68
2022-11-20T18:21:38.029Z,14.20
2022-11-20T18:26:44.052Z,16.00
2022-11-20T18:31:46.300Z,16.03
2022-11-20T18:36:48.087Z,16.55
2022-11-20T18:42:08.751Z,17.45
2022-11-20T18:47:14.952Z,17.13
2022-11-20T18:52:17.662Z,17.57
2022-11-20T18:57:21.823Z,17.27
2022-11-20T19:02:23.655Z,17.52
2022-11-20T19:07:25.762Z,21.15
2022-11-20T19:12:27.516Z,24.15
2022-11-20T19:17:29.444Z,22.65
2022-11-20T19:22:31.401Z,24.02
2022-11-20T19:27:33.815Z,23.48
2022-11-20T19:32:35.857Z,23.38
2022-11-20T19:37:41.077Z,22.17
2022-11-20T19:42:43.084Z,29.27
2022-11-20T19:48:06.553Z,23.42
2022-11-20T19:53:08.016Z,26.38
2022-11-20T19:58:09.651Z,24.65
2022-11-20T20:03:11.335Z,21.40
2022-11-20T20:08:16.961Z,27.75
2022-11-20T20:13:18.985Z,24.00
2022-11-20T20:18:20.966Z,28.88
2022-11-20T20:23:22.795Z,26.27
2022-11-20T20:28:24.689Z,28.35
2022-11-20T20:33:26.343Z,27.35
2022-11-20T20:38:28.081Z,32.15
2022-11-20T20:43:29.968Z,31.02
2022-11-20T20:48:31.690Z,40.47
2022-11-20T20:53:34.116Z,34.72
2022-11-20T20:58:36.403Z,30.75
2022-11-20T21:03:38.769Z,28.85
2022-11-20T21:08:43.513Z,26.33
2022-11-20T21:13:47.529Z,28.75
2022-11-20T21:18:49.405Z,30.90
2022-11-20T21:23:52.092Z,28.25
2022-11-20T21:28:53.892Z,26.33
2022-11-20T21:33:56.738Z,27.90
2022-11-20T21:38:59.497Z,26.95
2022-11-20T21:49:25.916Z,26.35
2022-11-20T21:54:27.802Z,22.02
2022-11-20T21:59:29.408Z,31.63
2022-11-20T22:04:31.025Z,26.17
2022-11-20T22:09:32.659Z,27.40
2022-11-20T22:14:34.276Z,25.13
2022-11-20T22:19:35.850Z,21.88
2022-11-20T22:24:37.478Z,23.10
2022-11-20T22:29:39.086Z,19.65
2022-11-20T22:34:40.674Z,19.67
2022-11-20T22:39:42.297Z,19.83
2022-11-20T22:44:43.887Z,17.85
2022-11-20T22:49:45.496Z,19.88
2022-11-20T22:54:47.119Z,22.30
2022-11-20T22:59:48.790Z,19.38
2022-11-20T23:04:50.474Z,22.55
2022-11-20T23:09:52.095Z,21.98
2022-11-20T23:14:53.713Z,22.27
2022-11-20T23:19:55.343Z,32.00
2022-11-20T23:24:57.038Z,37.53
2022-11-20T23:29:59.240Z,39.65
2022-11-20T23:35:00.893Z,43.80
2022-11-20T23:40:03.283Z,39.58
2022-11-20T23:45:05.225Z,44.45
2022-11-20T23:50:07.051Z,45.10
2022-11-20T23:55:08.818Z,51.50
